Time;durP1;ratioP1;P1;durP2;ratioP2;P2;SDS_P1;SDS_P2;PMS_P1;PMS_P2;Temp;Humidity;BMP_temperature;BMP_pressure;BME280_temperature;BME280_humidity;BME280_pressure;Samples;Min_cycle;Max_cycle;Signal;HPM_P1;HPM_P2
2022/09/03 00:00:03;;;;;;;5.15;3.25;;;;;;;14.26;100.00;99947.84;5015450;28;20026;-94
2022/09/03 00:02:35;;;;;;;5.65;3.40;;;;;;;14.27;100.00;99961.34;5015666;28;20050;-96
2022/09/03 00:05:10;;;;;;;5.10;3.30;;;;;;;14.26;100.00;99961.81;5013746;28;20045;-95
2022/09/03 00:07:46;;;;;;;5.75;3.90;;;;;;;14.25;100.00;99965.81;5007263;28;20403;-78
2022/09/03 00:10:20;;;;;;;4.53;3.60;;;;;;;14.25;100.00;99968.63;5009372;28;20066;-78
2022/09/03 00:12:46;;;;;;;4.97;3.53;;;;;;;14.23;100.00;99959.94;5009425;28;20498;-78
2022/09/03 00:15:16;;;;;;;5.32;3.75;;;;;;;14.21;100.00;99970.78;5011545;28;20030;-78
2022/09/03 00:17:51;;;;;;;4.35;3.30;;;;;;;14.18;100.00;99966.13;5009705;28;20049;-78
2022/09/03 00:20:21;;;;;;;5.07;3.63;;;;;;;14.14;100.00;99960.72;5009844;28;20577;-78
2022/09/03 00:22:52;;;;;;;6.85;3.78;;;;;;;14.09;100.00;99960.53;4988134;28;20035;-78
2022/09/03 00:25:37;;;;;;;4.70;3.72;;;;;;;14.06;100.00;99961.47;5007675;28;20037;-78
2022/09/03 00:28:11;;;;;;;7.50;3.80;;;;;;;14.05;100.00;99948.75;5012023;28;20068;-94
2022/09/03 00:30:36;;;;;;;;;;;;;;;13.98;100.00;99949.84;5012922;28;20038;-94
2022/09/03 00:33:09;;;;;;;7.55;4.35;;;;;;;13.87;100.00;99943.94;5012960;28;19948;-94
2022/09/03 00:35:49;;;;;;;4.20;3.70;;;;;;;13.83;100.00;99951.69;5006610;28;20038;-96
2022/09/03 00:38:15;;;;;;;6.90;3.30;;;;;;;13.77;100.00;99957.06;5013181;28;20046;-95
2022/09/03 00:41:00;;;;;;;5.68;3.35;;;;;;;13.68;100.00;99951.47;5012624;28;20038;-94
2022/09/03 00:43:30;;;;;;;4.75;3.20;;;;;;;13.72;100.00;99954.88;5012038;28;20038;-94
2022/09/03 00:46:30;;;;;;;5.03;3.08;;;;;;;13.69;100.00;99955.03;5013779;28;20042;-78
2022/09/03 00:48:56;;;;;;;4.30;3.35;;;;;;;13.73;100.00;99962.03;5002462;28;20500;-78
2022/09/03 00:51:35;;;;;;;5.00;3.63;;;;;;;13.73;100.00;99964.81;5008983;28;20057;-78
2022/09/03 00:54:06;;;;;;;4.88;3.90;;;;;;;13.70;100.00;99962.94;5010135;28;20026;-78
2022/09/03 00:56:45;;;;;;;7.03;4.47;;;;;;;13.68;100.00;99962.63;5009395;28;20120;-78
2022/09/03 00:59:10;;;;;;;4.22;3.42;;;;;;;13.73;100.00;99959.22;5010558;28;20430;-78
2022/09/03 01:04:52;;;;;;;8.18;4.47;;;;;;;13.50;100.00;99949.41;4316864;26;20418;-86
2022/09/03 01:07:39;;;;;;;7.95;4.43;;;;;;;13.53;100.00;99953.28;5033114;28;20112;-86
2022/09/03 01:10:24;;;;;;;6.05;4.07;;;;;;;13.54;100.00;99950.03;5021853;28;20033;-85
2022/09/03 01:13:11;;;;;;;4.57;3.97;;;;;;;13.54;100.00;99949.25;5028248;28;20087;-86
2022/09/03 01:15:51;;;;;;;6.75;4.05;;;;;;;13.44;100.00;99933.75;5030440;28;20072;-86
2022/09/03 01:18:27;;;;;;;5.22;3.75;;;;;;;13.46;100.00;99945.22;5030619;28;20116;-92
2022/09/03 01:20:55;;;;;;;7.35;3.97;;;;;;;13.45;100.00;99943.66;5031478;28;20034;-86
2022/09/03 01:23:36;;;;;;;6.15;3.70;;;;;;;13.38;100.00;99935.59;5035151;28;20439;-86
2022/09/03 01:26:33;;;;;;;5.95;3.45;;;;;;;13.34;100.00;99932.16;5027352;28;20036;-86
2022/09/03 01:29:55;;;;;;;4.45;2.95;;;;;;;13.29;100.00;99935.53;4984723;28;20049;-86
2022/09/03 01:32:30;;;;;;;4.53;2.90;;;;;;;13.25;100.00;99943.25;4949762;29;20043;-85
2022/09/03 01:35:01;;;;;;;4.63;3.63;;;;;;;13.23;100.00;99942.94;4947415;28;20047;-85
2022/09/03 01:37:56;;;;;;;6.20;4.18;;;;;;;13.21;100.00;99953.75;4994840;28;20106;-85
2022/09/03 01:40:32;;;;;;;5.85;4.45;;;;;;;13.14;100.00;99951.25;5038513;28;20061;-91
2022/09/03 01:43:19;;;;;;;4.72;4.03;;;;;;;13.13;100.00;99946.91;5030356;28;20112;-92
2022/09/03 01:46:14;;;;;;;4.90;4.10;;;;;;;13.09;100.00;99945.03;5028507;28;20483;-92
2022/09/03 01:48:52;;;;;;;7.28;4.22;;;;;;;13.07;100.00;99935.56;5001300;28;20128;-92
2022/09/03 01:51:21;;;;;;;6.75;4.50;;;;;;;13.07;100.00;99944.69;5030750;28;20029;-92
2022/09/03 01:54:11;;;;;;;6.15;5.18;;;;;;;13.01;100.00;99946.53;5031992;28;20490;-92
2022/09/03 01:56:39;;;;;;;5.82;4.28;;;;;;;12.99;100.00;99948.97;5012977;28;20470;-86
2022/09/03 01:59:08;;;;;;;7.32;4.60;;;;;;;13.02;100.00;99950.09;5029320;28;20533;-92
2022/09/03 02:01:40;;;;;;;7.25;4.30;;;;;;;12.99;100.00;99954.53;5024604;28;20025;-91
2022/09/03 02:04:19;;;;;;;5.32;4.25;;;;;;;13.02;100.00;99953.63;5018286;28;20129;-92
2022/09/03 02:06:47;;;;;;;5.97;3.80;;;;;;;13.05;100.00;99951.97;5008348;28;20091;-91
2022/09/03 02:09:14;;;;;;;6.50;4.47;;;;;;;13.06;100.00;99943.13;5021049;28;20041;-91
2022/09/03 02:11:41;;;;;;;5.28;3.25;;;;;;;13.01;100.00;99954.88;5024286;28;20164;-90
2022/09/03 02:14:06;;;;;;;5.03;3.60;;;;;;;13.02;100.00;99959.19;5012578;28;20036;-91
2022/09/03 02:16:33;;;;;;;5.72;3.22;;;;;;;12.97;100.00;99945.88;5000943;28;20042;-90
2022/09/03 02:19:05;;;;;;;5.28;3.72;;;;;;;12.97;100.00;99964.59;5037237;28;20022;-92
2022/09/03 02:21:34;;;;;;;4.63;3.25;;;;;;;12.94;100.00;99957.16;5036181;28;20056;-91
2022/09/03 02:24:00;;;;;;;4.72;3.58;;;;;;;12.92;100.00;99954.03;5043930;28;20029;-92
2022/09/03 02:26:25;;;;;;;4.63;3.25;;;;;;;12.84;100.00;99958.31;5031425;28;20053;-91
2022/09/03 02:28:52;;;;;;;5.75;3.40;;;;;;;12.84;100.00;99961.09;5014882;28;20037;-91
2022/09/03 02:31:17;;;;;;;4.13;2.90;;;;;;;12.80;100.00;99950.09;5013580;28;20060;-92
2022/09/03 02:33:45;;;;;;;5.43;3.15;;;;;;;12.76;100.00;99963.38;5020689;28;20039;-91
2022/09/03 02:36:13;;;;;;;3.38;2.95;;;;;;;12.78;100.00;99972.03;5012955;28;20329;-86
2022/09/03 02:38:43;;;;;;;4.78;3.03;;;;;;;12.77;100.00;99964.16;5019339;28;20149;-92
2022/09/03 02:41:13;;;;;;;4.13;3.10;;;;;;;12.77;100.00;99964.94;5012269;28;20113;-93
2022/09/03 02:43:47;;;;;;;4.10;2.97;;;;;;;12.75;100.00;99966.59;5009030;28;20052;-91
2022/09/03 02:46:26;;;;;;;6.03;3.60;;;;;;;12.68;100.00;99967.66;5013770;28;20558;-93
2022/09/03 02:48:52;;;;;;;6.28;3.40;;;;;;;12.65;100.00;99979.69;5018129;28;20038;-91
2022/09/03 02:51:18;;;;;;;4.78;3.42;;;;;;;12.62;100.00;99970.22;5016786;28;20041;-91
2022/09/03 02:53:44;;;;;;;4.10;3.17;;;;;;;12.66;100.00;99981.22;5014058;28;20026;-92
2022/09/03 02:56:10;;;;;;;4.22;3.10;;;;;;;12.69;100.00;99974.78;5013667;28;20042;-85
2022/09/03 02:58:36;;;;;;;4.57;3.15;;;;;;;12.68;100.00;99978.78;5018382;28;20068;-85
2022/09/03 03:01:01;;;;;;;6.05;3.00;;;;;;;12.66;100.00;99977.69;5010993;28;20069;-85
2022/09/03 03:03:27;;;;;;;5.15;3.20;;;;;;;12.70;100.00;99981.88;5021216;28;20561;-85
2022/09/03 03:05:55;;;;;;;6.47;4.72;;;;;;;12.79;100.00;99995.84;5013938;28;20037;-85
2022/09/03 03:08:24;;;;;;;6.95;4.95;;;;;;;12.82;100.00;100006.06;5024024;28;20499;-85
2022/09/03 03:10:57;;;;;;;6.57;4.45;;;;;;;12.86;100.00;100000.41;5005998;28;20026;-86
2022/09/03 03:13:27;;;;;;;6.20;4.32;;;;;;;12.86;100.00;100000.41;5011687;28;20030;-92
2022/09/03 03:16:00;;;;;;;5.65;4.45;;;;;;;12.81;100.00;100003.78;5009525;28;20078;-86
2022/09/03 03:18:27;;;;;;;4.85;4.25;;;;;;;12.79;100.00;99995.06;5021241;28;20037;-85
2022/09/03 03:20:53;;;;;;;5.15;4.35;;;;;;;12.74;100.00;99982.53;5005550;28;20033;-85
2022/09/03 03:23:19;;;;;;;6.47;4.78;;;;;;;12.65;100.00;99978.91;5008530;28;20022;-85
2022/09/03 03:25:44;;;;;;;6.03;5.10;;;;;;;12.62;100.00;99988.91;5021225;28;20056;-86
2022/09/03 03:28:10;;;;;;;5.97;4.85;;;;;;;12.60;100.00;99994.19;5028853;28;20368;-85
2022/09/03 03:30:39;;;;;;;5.93;4.50;;;;;;;12.58;100.00;100002.19;5020741;28;20055;-85
2022/09/03 03:33:10;;;;;;;5.10;4.00;;;;;;;12.57;100.00;99997.88;4998978;28;20045;-85
2022/09/03 03:35:36;;;;;;;5.78;4.20;;;;;;;12.56;100.00;99993.53;5022319;28;20041;-92
2022/09/03 03:38:02;;;;;;;7.93;4.30;;;;;;;12.58;100.00;100002.19;5022160;28;20030;-92
2022/09/03 03:40:27;;;;;;;4.93;4.00;;;;;;;12.55;100.00;99987.19;5014014;28;20105;-92
2022/09/03 03:42:53;;;;;;;5.93;4.00;;;;;;;12.58;100.00;99997.41;5015181;28;20084;-91
2022/09/03 03:45:19;;;;;;;6.15;4.10;;;;;;;12.58;100.00;99997.41;5022285;28;20038;-91
2022/09/03 03:47:45;;;;;;;6.43;4.13;;;;;;;12.61;100.00;100001.31;5026561;28;20037;-91
2022/09/03 03:50:10;;;;;;;4.90;3.80;;;;;;;12.63;100.00;100004.41;5029483;28;20443;-92
2022/09/03 03:52:36;;;;;;;5.55;4.18;;;;;;;12.64;100.00;100003.16;5023281;28;20111;-94
2022/09/03 03:55:02;;;;;;;7.05;4.80;;;;;;;12.60;100.00;99994.19;5017727;28;20030;-84
2022/09/03 03:57:29;;;;;;;5.38;4.65;;;;;;;12.53;100.00;99991.66;5014406;28;20026;-84
2022/09/03 03:59:55;;;;;;;5.72;4.72;;;;;;;12.52;100.00;99987.31;5017276;28;20068;-84
2022/09/03 04:02:20;;;;;;;5.57;4.78;;;;;;;12.53;100.00;99988.88;5013007;28;20088;-84
2022/09/03 04:04:46;;;;;;;5.88;5.25;;;;;;;12.53;100.00;99983.31;5021165;28;20045;-84
2022/09/03 04:07:11;;;;;;;5.53;5.03;;;;;;;12.56;100.00;99987.97;5024324;28;20553;-84
2022/09/03 04:09:37;;;;;;;7.20;5.60;;;;;;;12.55;100.00;99987.19;5020671;28;20407;-84
2022/09/03 04:12:07;;;;;;;7.40;4.55;;;;;;;12.57;100.00;99992.31;5016019;28;20091;-84
2022/09/03 04:14:34;;;;;;;5.65;4.70;;;;;;;12.60;100.00;99994.19;5019357;28;20112;-84
2022/09/03 04:17:01;;;;;;;5.75;4.72;;;;;;;12.62;100.00;100000.06;5015720;28;20030;-84
2022/09/03 04:19:29;;;;;;;6.57;4.85;;;;;;;12.59;100.00;99998.19;5019032;28;20026;-83
2022/09/03 04:21:54;;;;;;;5.88;5.10;;;;;;;12.62;100.00;99997.28;5013032;28;20115;-84
2022/09/03 04:24:20;;;;;;;7.78;4.90;;;;;;;12.63;100.00;99999.59;5021318;28;20498;-84
2022/09/03 04:26:46;;;;;;;6.97;5.40;;;;;;;12.63;100.00;100004.41;5019211;28;20026;-84
2022/09/03 04:29:11;;;;;;;5.75;4.72;;;;;;;12.61;100.00;100001.31;5016637;28;20514;-83
2022/09/03 04:31:38;;;;;;;6.45;5.20;;;;;;;12.61;100.00;100006.88;5012666;28;20065;-91
2022/09/03 04:34:08;;;;;;;6.88;4.78;;;;;;;12.65;100.00;100007.53;5015805;28;20038;-92
2022/09/03 04:36:33;;;;;;;8.23;5.10;;;;;;;12.67;100.00;100009.84;5020152;28;20037;-92
2022/09/03 04:39:00;;;;;;;7.53;4.65;;;;;;;12.64;100.00;100003.16;5012440;28;20021;-93
2022/09/03 04:41:27;;;;;;;8.07;5.47;;;;;;;12.63;100.00;100015.53;5014381;28;20041;-93
2022/09/03 04:43:55;;;;;;;7.28;5.28;;;;;;;12.59;100.00;100012.09;5013195;28;20026;-91
2022/09/03 04:46:22;;;;;;;6.72;5.45;;;;;;;12.55;100.00;100008.66;5023949;28;20116;-91
2022/09/03 04:48:49;;;;;;;7.65;5.43;;;;;;;12.58;100.00;100010.53;5014315;28;20445;-92
2022/09/03 04:51:20;;;;;;;6.13;4.97;;;;;;;12.59;100.00;100010.09;5030168;28;20041;-91
2022/09/03 04:53:48;;;;;;;9.57;5.40;;;;;;;12.65;100.00;100017.88;5031433;28;20044;-92
2022/09/03 04:56:16;;;;;;;9.68;5.63;;;;;;;12.67;100.00;100007.03;5018448;28;20079;-93
2022/09/03 04:58:42;;;;;;;5.35;4.70;;;;;;;12.74;100.00;100010.34;5012422;28;20049;-92
2022/09/03 05:01:15;;;;;;;7.53;6.43;;;;;;;12.79;100.00;100009.78;5015971;28;20088;-92
2022/09/03 05:03:41;;;;;;;6.25;5.55;;;;;;;12.86;100.00;100017.88;4995184;28;20046;-92
2022/09/03 05:06:07;;;;;;;8.23;6.13;;;;;;;13.00;100.00;100022.16;5019075;28;20064;-92
2022/09/03 05:08:36;;;;;;;7.38;6.18;;;;;;;13.04;100.00;100017.22;5014173;28;20081;-92
2022/09/03 05:11:03;;;;;;;8.43;6.88;;;;;;;13.16;100.00;100018.41;5025724;28;20061;-84
2022/09/03 05:13:28;;;;;;;6.30;5.68;;;;;;;13.28;100.00;100014.75;5011809;28;20029;-83
2022/09/03 05:16:01;;;;;;;6.90;6.07;;;;;;;13.39;100.00;100023.47;5022801;28;20473;-84
2022/09/03 05:18:27;;;;;;;8.25;6.57;;;;;;;13.51;100.00;100019.81;5023167;28;20040;-84
2022/09/03 05:21:03;;;;;;;9.30;6.85;;;;;;;13.65;100.00;100013.72;5014414;28;20095;-85
2022/09/03 05:23:29;;;;;;;9.65;5.97;;;;;;;13.73;100.00;100005.84;5017463;28;20422;-85
2022/09/03 05:26:00;;;;;;;9.02;6.70;;;;;;;13.88;100.00;100010.38;5012793;28;20541;-85
2022/09/03 05:28:27;;;;;;;7.22;5.72;;;;;;;13.98;100.00;100005.63;5019009;28;20030;-94
2022/09/03 05:31:00;;;;;;;7.07;6.13;;;;;;;14.13;100.00;100016.94;4997168;28;20049;-92
2022/09/03 05:33:26;;;;;;;10.52;5.45;;;;;;;14.20;100.00;100013.84;5020405;28;20046;-92
2022/09/03 05:35:53;;;;;;;8.60;5.78;;;;;;;14.21;100.00;100012.63;5017581;28;20037;-91
2022/09/03 05:38:19;;;;;;;6.10;5.50;;;;;;;14.32;100.00;100008.16;5019051;28;20029;-92
2022/09/03 05:40:44;;;;;;;9.38;6.47;;;;;;;14.56;100.00;100013.94;5014919;28;20033;-92
2022/09/03 05:43:10;;;;;;;7.13;5.57;;;;;;;14.73;100.00;100004.00;5018053;28;20394;-93
2022/09/03 05:45:37;;;;;;;7.57;5.13;;;;;;;14.90;100.00;100008.03;5014112;28;20103;-84
2022/09/03 05:48:03;;;;;;;7.32;5.40;;;;;;;15.07;100.00;100013.28;5010843;28;20037;-90
2022/09/03 05:50:28;;;;;;;7.50;5.47;;;;;;;15.21;100.00;100015.41;5018391;28;20048;-91
2022/09/03 05:52:54;;;;;;;7.28;5.32;;;;;;;15.36;100.00;100014.31;5029587;28;20034;-92
2022/09/03 05:55:20;;;;;;;6.75;5.00;;;;;;;15.47;100.00;100016.59;5012779;28;20030;-93
2022/09/03 05:57:51;;;;;;;7.82;5.47;;;;;;;15.69;100.00;100017.16;5011072;28;20091;-92
2022/09/03 06:00:18;;;;;;;6.85;4.80;;;;;;;15.78;100.00;100019.91;5011209;28;20026;-92
2022/09/03 06:02:53;;;;;;;6.57;4.47;;;;;;;15.83;100.00;100012.91;5021127;28;20037;-91
2022/09/03 06:05:19;;;;;;;5.53;4.60;;;;;;;15.98;100.00;100021.38;5017169;28;20096;-85
2022/09/03 06:07:48;;;;;;;5.40;4.20;;;;;;;16.06;100.00;100017.75;5006527;28;20487;-84
2022/09/03 06:10:16;;;;;;;6.72;4.72;;;;;;;16.25;100.00;100015.63;5007639;28;20026;-84
2022/09/03 06:12:48;;;;;;;6.95;4.65;;;;;;;16.42;100.00;100010.41;5024614;28;20037;-84
2022/09/03 06:15:15;;;;;;;5.35;3.67;;;;;;;16.50;100.00;100006.72;4997107;28;20037;-82
2022/09/03 06:17:40;;;;;;;5.97;3.90;;;;;;;16.54;100.00;100001.72;5025066;28;20034;-79
2022/09/03 06:20:06;;;;;;;5.68;4.07;;;;;;;16.50;100.00;100011.56;5027913;28;20037;-80
2022/09/03 06:22:32;;;;;;;5.32;4.03;;;;;;;16.51;100.00;100011.06;5011578;28;20120;-81
2022/09/03 06:24:57;;;;;;;4.20;3.80;;;;;;;16.71;100.00;100016.84;5016227;28;20110;-80
2022/09/03 06:27:27;;;;;;;7.65;4.20;;;;;;;16.71;100.00;100002.06;5013137;28;20026;-80
2022/09/03 06:29:53;;;;;;;4.85;3.80;;;;;;;16.71;100.00;100005.66;5019383;28;20038;-81
2022/09/03 06:32:19;;;;;;;4.43;3.88;;;;;;;16.72;100.00;100004.41;5010059;28;20104;-80
2022/09/03 06:34:44;;;;;;;6.15;3.80;;;;;;;16.76;100.00;99996.59;5009134;28;20043;-80
2022/09/03 06:37:10;;;;;;;6.03;3.97;;;;;;;16.67;100.00;100004.28;5017154;28;20033;-81
2022/09/03 06:39:35;;;;;;;4.90;3.60;;;;;;;16.87;100.00;100007.22;5021830;28;20029;-80
2022/09/03 06:42:01;;;;;;;5.53;4.20;;;;;;;16.95;100.00;100002.00;5018218;28;20034;-80
2022/09/03 06:44:35;;;;;;;5.38;4.30;;;;;;;17.29;100.00;99998.56;5051588;28;20040;-92
2022/09/03 06:47:01;;;;;;;4.93;3.95;;;;;;;17.61;100.00;100003.19;5027142;28;20066;-79
2022/09/03 06:49:27;;;;;;;7.88;4.47;;;;;;;17.71;100.00;100007.41;5020397;28;20104;-81
2022/09/03 06:51:52;;;;;;;5.88;3.70;;;;;;;17.52;100.00;100005.31;5021575;28;20081;-81
2022/09/03 06:54:17;;;;;;;6.63;4.10;;;;;;;17.87;100.00;100006.16;5028509;28;20037;-80
2022/09/03 06:56:43;;;;;;;6.57;3.90;;;;;;;18.08;97.58;100006.94;5023528;28;20509;-80
2022/09/03 06:59:10;;;;;;;4.60;4.00;;;;;;;18.15;97.42;100018.56;5024762;28;20518;-80
2022/09/03 07:25:25;;;;;;;8.68;4.80;;;;;;;18.99;92.89;100022.38;4353489;26;20041;-79
2022/09/03 07:27:51;;;;;;;5.70;4.60;;;;;;;18.98;93.35;100020.84;5002656;28;20395;-79
2022/09/03 07:30:18;;;;;;;6.03;4.68;;;;;;;19.03;92.35;100022.94;5018361;28;20069;-80
2022/09/03 07:32:49;;;;;;;5.70;5.07;;;;;;;19.02;91.63;100018.59;5018948;28;20034;-80
2022/09/03 07:35:15;;;;;;;7.38;5.10;;;;;;;19.03;91.91;100029.34;5014118;28;20553;-80
2022/09/03 07:37:41;;;;;;;6.15;5.25;;;;;;;19.17;90.64;100024.13;5004531;28;20045;-80
2022/09/03 07:40:09;;;;;;;5.82;5.22;;;;;;;19.09;91.38;100020.94;4993793;28;20365;-80
2022/09/03 07:42:37;;;;;;;8.13;4.63;;;;;;;19.37;90.59;100035.31;5022210;28;20034;-95
2022/09/03 07:45:11;;;;;;;7.03;5.03;;;;;;;19.42;89.34;100031.75;5027528;28;20041;-96
2022/09/03 07:47:36;;;;;;;6.68;4.95;;;;;;;19.25;90.65;100028.78;4989620;28;20049;-96
2022/09/03 07:50:03;;;;;;;5.22;4.72;;;;;;;19.62;88.60;100022.47;5038172;28;20049;-96
2022/09/03 07:52:29;;;;;;;8.98;4.57;;;;;;;19.73;88.06;100028.22;5019295;28;20426;-94
2022/09/03 07:54:54;;;;;;;8.30;4.90;;;;;;;19.71;87.84;100030.72;5033440;28;20042;-93
2022/09/03 07:57:21;;;;;;;5.82;4.80;;;;;;;19.83;88.35;100029.53;5020531;28;20026;-96
2022/09/03 07:59:47;;;;;;;7.10;5.20;;;;;;;20.18;84.25;100035.66;5007710;28;20124;-81
2022/09/03 08:02:12;;;;;;;7.15;4.78;;;;;;;20.35;84.47;100032.97;4998006;28;20129;-94
2022/09/03 08:04:39;;;;;;;5.15;4.47;;;;;;;20.39;83.35;100027.88;5020795;28;20036;-93
2022/09/03 08:07:05;;;;;;;7.90;4.75;;;;;;;20.41;84.93;100028.91;5024968;28;20037;-95
2022/09/03 08:09:31;;;;;;;4.78;4.28;;;;;;;20.69;84.29;100031.06;5017452;28;20056;-96
2022/09/03 08:11:57;;;;;;;6.13;4.55;;;;;;;20.87;81.27;100027.78;5034646;28;20098;-95
2022/09/03 08:14:22;;;;;;;7.20;4.65;;;;;;;20.85;82.25;100019.09;5037627;28;20030;-96
2022/09/03 08:16:48;;;;;;;6.60;4.70;;;;;;;21.05;81.72;100021.69;5030975;28;20028;-96
2022/09/03 08:19:15;;;;;;;5.78;4.50;;;;;;;21.08;81.53;100029.13;5034153;28;20042;-95
2022/09/03 08:21:41;;;;;;;6.35;4.55;;;;;;;21.16;78.98;100032.25;5018635;28;20471;-79
2022/09/03 08:24:07;;;;;;;7.82;4.90;;;;;;;20.73;82.50;100026.75;5010627;28;20095;-80
2022/09/03 08:26:35;;;;;;;6.13;4.15;;;;;;;21.11;81.05;100027.34;5017913;28;20076;-79
2022/09/03 08:29:01;;;;;;;6.53;3.92;;;;;;;21.33;80.22;100025.34;5016614;28;20026;-79
2022/09/03 08:31:28;;;;;;;6.05;4.15;;;;;;;21.58;78.24;100011.50;5010921;28;20053;-80
2022/09/03 08:33:55;;;;;;;5.40;4.03;;;;;;;21.80;77.24;100022.78;5031574;28;20095;-80
2022/09/03 08:36:25;;;;;;;4.63;3.70;;;;;;;21.83;76.06;100018.94;5024568;28;20038;-80
2022/09/03 08:38:54;;;;;;;5.75;3.40;;;;;;;22.01;75.66;100009.94;5026073;28;20038;-81
2022/09/03 08:41:53;;;;;;;5.75;3.60;;;;;;;22.03;74.50;100015.84;5025035;28;20026;-96
2022/09/03 08:45:04;;;;;;;4.63;3.42;;;;;;;22.30;75.33;100009.34;5024541;28;20101;-95
2022/09/03 08:47:43;;;;;;;5.63;3.95;;;;;;;22.50;72.33;100007.47;5026560;28;20045;-94
2022/09/03 08:50:21;;;;;;;6.15;3.50;;;;;;;22.83;72.84;100013.00;5023472;28;20055;-95
2022/09/03 08:52:49;;;;;;;4.53;3.55;;;;;;;22.73;70.90;100006.13;5041588;28;20041;-96
2022/09/03 08:55:27;;;;;;;4.93;3.72;;;;;;;22.42;72.40;100007.25;5050061;28;20044;-93
2022/09/03 08:58:03;;;;;;;4.75;3.88;;;;;;;22.38;73.33;100003.16;5037491;28;20048;-95
2022/09/03 09:01:00;;;;;;;5.80;3.38;;;;;;;22.61;73.73;99996.13;5012235;28;20108;-80
2022/09/03 09:03:31;;;;;;;8.18;3.72;;;;;;;22.89;72.36;100002.44;5019818;28;20042;-80
2022/09/03 09:06:08;;;;;;;5.22;3.20;;;;;;;23.13;72.77;99999.69;5026116;28;20034;-81
2022/09/03 09:09:01;;;;;;;7.03;3.20;;;;;;;23.30;68.88;99995.97;5010677;28;20112;-81
2022/09/03 09:11:37;;;;;;;3.88;3.22;;;;;;;23.29;67.47;99986.75;5005310;28;20038;-81
2022/09/03 09:14:07;;;;;;;5.05;2.92;;;;;;;23.37;67.74;99995.44;4997216;28;20105;-81
2022/09/03 09:16:42;;;;;;;5.05;3.03;;;;;;;23.33;69.21;100000.63;5013252;28;20030;-93
2022/09/03 09:19:16;;;;;;;3.50;3.08;;;;;;;23.06;69.76;99999.50;5016158;28;20080;-80
2022/09/03 09:21:49;;;;;;;5.32;3.38;;;;;;;23.40;69.41;100002.88;5012623;28;20048;-81
2022/09/03 09:24:25;;;;;;;4.55;3.70;;;;;;;23.52;69.37;99998.69;4990282;28;20403;-81
2022/09/03 09:26:59;;;;;;;3.63;2.92;;;;;;;24.14;66.05;100000.41;4987640;28;20041;-81
2022/09/03 09:29:31;;;;;;;4.97;3.15;;;;;;;24.25;63.88;99999.53;4998673;28;20144;-80
2022/09/03 09:31:57;;;;;;;5.72;2.70;;;;;;;24.14;62.54;100010.97;5002010;28;20046;-80
2022/09/03 09:34:22;;;;;;;5.78;2.80;;;;;;;23.49;63.63;100009.00;5003388;28;20451;-96
2022/09/03 09:36:50;;;;;;;4.97;2.95;;;;;;;23.88;63.18;100005.81;4980786;28;20041;-80
2022/09/03 09:39:16;;;;;;;6.25;3.15;;;;;;;23.84;63.41;99998.91;5010309;28;20018;-80
2022/09/03 09:41:45;;;;;;;4.28;3.05;;;;;;;23.91;65.70;100007.56;4996933;28;20478;-80
2022/09/03 09:44:19;;;;;;;3.85;2.80;;;;;;;24.01;61.85;100019.34;4997140;28;20142;-80
2022/09/03 09:46:44;;;;;;;4.32;2.88;;;;;;;23.75;61.61;100014.16;4997829;28;20096;-80
2022/09/03 09:49:30;;;;;;;5.07;2.90;;;;;;;23.66;63.41;100018.09;5002030;28;20042;-80
2022/09/03 09:52:03;;;;;;;7.05;2.90;;;;;;;23.88;64.44;100000.16;4992477;28;20034;-81
2022/09/03 09:54:29;;;;;;;3.75;2.65;;;;;;;24.39;63.68;99994.72;4999736;28;20100;-81
2022/09/03 09:57:04;;;;;;;2.97;2.53;;;;;;;24.67;58.46;99997.97;4999681;28;20022;-94
2022/09/03 09:59:30;;;;;;;4.35;2.72;;;;;;;23.92;58.33;99991.34;5024631;28;20037;-95
2022/09/03 10:02:08;;;;;;;4.30;2.50;;;;;;;24.12;56.89;99985.97;5004073;28;20015;-95
2022/09/03 10:04:34;;;;;;;3.78;2.70;;;;;;;24.47;55.53;99993.56;5009986;28;20054;-96
2022/09/03 10:07:04;;;;;;;4.10;2.63;;;;;;;24.42;55.82;99996.50;5005580;28;20032;-96
2022/09/03 10:09:32;;;;;;;4.63;2.63;;;;;;;24.60;54.77;99996.50;5022120;28;20052;-96
2022/09/03 10:40:43;;;;;;;4.60;2.45;;;;;;;25.03;52.02;99987.94;4350001;26;20123;-80
2022/09/03 10:43:18;;;;;;;3.80;2.70;;;;;;;25.14;48.98;99987.03;5067671;28;20508;-79
2022/09/03 10:46:02;;;;;;;4.43;2.40;;;;;;;25.21;47.89;99983.53;5068520;28;20039;-79
2022/09/03 10:48:52;;;;;;;4.07;2.45;;;;;;;25.32;48.70;99993.94;5061710;28;20158;-82
2022/09/03 10:54:15;;;;;;;3.60;2.50;;;;;;;25.63;48.49;99986.78;5007494;28;20080;-87
2022/09/03 10:56:48;;;;;;;4.40;2.60;;;;;;;25.79;47.67;99983.63;4987771;28;20125;-93
2022/09/03 10:59:19;;;;;;;3.38;2.45;;;;;;;25.31;48.90;99996.03;5003139;28;20044;-93
2022/09/03 11:01:57;;;;;;;4.78;2.70;;;;;;;25.15;49.43;99984.94;5005021;28;20046;-95
2022/09/03 11:04:40;;;;;;;3.83;2.83;;;;;;;24.91;50.67;99994.34;5007708;28;20570;-88
2022/09/03 11:07:12;;;;;;;4.68;2.42;;;;;;;24.48;50.92;99995.13;4987172;28;20124;-88
2022/09/03 11:09:45;;;;;;;3.72;2.42;;;;;;;24.52;51.53;99995.59;5008069;28;20029;-88
2022/09/03 11:12:18;;;;;;;7.50;2.58;;;;;;;24.41;52.11;99983.63;4988361;28;20060;-89
2022/09/03 11:14:46;;;;;;;4.07;2.67;;;;;;;24.69;50.14;99998.22;4989808;28;20636;-89
2022/09/03 11:17:21;;;;;;;4.15;2.55;;;;;;;24.34;52.28;99984.22;4990024;28;20033;-88
2022/09/03 11:19:51;;;;;;;5.80;2.67;;;;;;;24.46;52.09;99982.78;4984138;28;20037;-88
2022/09/03 11:22:17;;;;;;;4.38;2.70;;;;;;;24.25;51.81;99987.41;5007322;28;20407;-88
2022/09/03 11:24:54;;;;;;;5.18;2.65;;;;;;;24.09;52.71;99975.72;5008170;28;20030;-88
2022/09/03 11:27:35;;;;;;;3.28;2.40;;;;;;;24.08;51.43;99991.19;5002982;28;20570;-89
2022/09/03 11:30:06;;;;;;;4.45;2.40;;;;;;;24.22;50.29;99982.81;4998505;28;20022;-89
2022/09/03 11:32:55;;;;;;;4.25;2.75;;;;;;;24.57;51.14;99980.56;4993380;28;20038;-87
2022/09/03 11:35:26;;;;;;;4.57;2.40;;;;;;;24.93;49.98;99986.81;4990240;28;20480;-88
2022/09/03 11:37:54;;;;;;;3.53;2.40;;;;;;;25.27;48.57;99969.28;4989256;28;20042;-88
2022/09/03 11:40:28;;;;;;;4.07;2.50;;;;;;;25.40;48.68;99970.06;4973505;28;20384;-88
2022/09/03 11:43:11;;;;;;;3.50;2.30;;;;;;;25.52;49.41;99970.63;4986715;28;20089;-90
2022/09/03 11:45:38;;;;;;;4.63;2.40;;;;;;;25.74;47.61;99975.97;4990547;28;20124;-88
2022/09/03 11:48:17;;;;;;;5.90;2.85;;;;;;;25.74;48.11;99975.97;4976885;28;20046;-89
2022/09/03 11:50:51;;;;;;;5.32;2.45;;;;;;;25.71;46.80;99960.03;5009088;28;20041;-84
2022/09/03 11:53:27;;;;;;;4.45;3.00;;;;;;;25.68;46.65;99974.56;5010155;28;20046;-84
2022/09/03 11:55:58;;;;;;;5.72;2.70;;;;;;;25.77;47.17;99974.09;5009542;28;20466;-84
2022/09/03 11:58:32;;;;;;;4.70;2.47;;;;;;;25.63;47.61;99975.41;5010445;28;20046;-85
2022/09/03 12:01:00;;;;;;;3.55;2.30;;;;;;;25.70;45.74;99975.53;5010279;28;20491;-83
2022/09/03 12:03:46;;;;;;;6.40;2.55;;;;;;;25.39;47.66;99965.72;5010444;28;20041;-84
2022/09/03 12:06:43;;;;;;;4.93;2.63;;;;;;;25.12;47.03;99974.66;5009057;28;20046;-84
2022/09/03 12:09:37;;;;;;;5.40;2.47;;;;;;;25.14;47.00;99964.31;5008642;28;20044;-84
2022/09/03 12:12:06;;;;;;;3.25;2.25;;;;;;;25.54;46.42;99968.06;5008318;28;20514;-85
2022/09/03 12:14:51;;;;;;;3.38;2.60;;;;;;;25.36;45.95;99966.78;5011692;28;20104;-84
2022/09/03 12:17:22;;;;;;;4.57;2.65;;;;;;;25.42;47.86;99966.69;4991090;28;20049;-84
2022/09/03 12:19:53;;;;;;;3.95;2.40;;;;;;;25.27;46.23;99972.13;4971580;28;20487;-84
2022/09/03 12:22:21;;;;;;;3.53;2.60;;;;;;;25.29;46.41;99972.31;4990546;28;20042;-85
2022/09/03 12:24:46;;;;;;;6.53;2.38;;;;;;;25.41;46.33;99962.31;5004924;28;20048;-83
2022/09/03 12:27:23;;;;;;;4.32;2.35;;;;;;;25.62;46.13;99966.13;4996932;28;20042;-96
2022/09/03 12:29:59;;;;;;;5.20;2.40;;;;;;;25.75;45.59;99966.16;4995723;28;20045;-81
2022/09/03 12:32:35;;;;;;;4.47;2.70;;;;;;;25.35;46.10;99955.97;5007717;28;20309;-81
2022/09/03 12:35:22;;;;;;;5.80;2.20;;;;;;;25.40;46.15;99955.88;5006393;28;20373;-81
2022/09/03 12:37:51;;;;;;;3.45;2.33;;;;;;;25.22;46.61;99950.25;5004635;28;20045;-81
2022/09/03 12:40:18;;;;;;;3.33;2.45;;;;;;;25.31;46.21;99949.84;5005790;28;20033;-81